createdAt,value
2018-03-24T00:00:44.391Z,100124.95
2018-03-24T00:03:10.243Z,100118.02
2018-03-24T00:05:36.071Z,100115.89
2018-03-24T00:08:01.917Z,100109.77
2018-03-24T00:10:28.588Z,100109.56
2018-03-24T00:12:54.409Z,100110.66
2018-03-24T00:15:20.219Z,100106.72
2018-03-24T00:17:46.046Z,100112.64
2018-03-24T00:20:11.898Z,100111.87
2018-03-24T00:22:37.715Z,100107.20
2018-03-24T00:25:03.576Z,100115.27
2018-03-24T00:27:29.394Z,100117.81
2018-03-24T00:29:55.207Z,100111.16
2018-03-24T00:32:21.020Z,100115.81
2018-03-24T00:34:46.867Z,100116.77
2018-03-24T00:37:12.674Z,100111.92
2018-03-24T00:39:38.535Z,100110.95
2018-03-24T00:42:04.352Z,100109.64
2018-03-24T00:44:30.186Z,100111.92
2018-03-24T00:46:56.068Z,100112.64
2018-03-24T00:49:21.877Z,100113.73
2018-03-24T00:51:47.694Z,100113.25
2018-03-24T00:54:13.519Z,100113.05
2018-03-24T00:56:39.353Z,100104.98
2018-03-24T00:59:05.172Z,100107.13
2018-03-24T01:01:31.018Z,100105.03
2018-03-24T01:03:56.834Z,100109.36
2018-03-24T01:06:22.652Z,100098.70
2018-03-24T01:08:48.483Z,100098.71
2018-03-24T01:11:14.296Z,100087.33
2018-03-24T01:13:40.114Z,100094.25
2018-03-24T01:16:05.935Z,100099.54
2018-03-24T01:18:32.591Z,100099.36
2018-03-24T01:20:59.303Z,100088.77
2018-03-24T01:23:25.117Z,100095.19
2018-03-24T01:25:51.871Z,100085.83
2018-03-24T01:28:18.672Z,100088.08
2018-03-24T01:30:45.546Z,100079.27
2018-03-24T01:33:11.399Z,100089.85
2018-03-24T01:35:37.220Z,100077.23
2018-03-24T01:38:03.074Z,100074.29
2018-03-24T01:40:28.881Z,100072.99
2018-03-24T01:42:54.726Z,100068.79
2018-03-24T01:45:20.541Z,100072.55
2018-03-24T01:47:46.421Z,100067.03
2018-03-24T01:50:12.244Z,100070.44
2018-03-24T01:52:38.088Z,100073.78
2018-03-24T01:55:03.935Z,100066.25
2018-03-24T01:57:29.743Z,100070.11
2018-03-24T01:59:55.546Z,100063.03
2018-03-24T02:02:21.351Z,100068.44
2018-03-24T02:04:48.035Z,100066.86
2018-03-24T02:07:14.667Z,100061.52
2018-03-24T02:09:41.497Z,100057.94
2018-03-24T02:12:07.319Z,100060.91
2018-03-24T02:14:33.130Z,100050.73
2018-03-24T02:16:58.946Z,100056.97
2018-03-24T02:19:24.762Z,100052.61
2018-03-24T02:21:50.603Z,100046.75
2018-03-24T02:24:17.208Z,100053.09
2018-03-24T02:26:43.031Z,100055.45
2018-03-24T02:29:08.837Z,100060.37
2018-03-24T02:31:34.654Z,100054.91
2018-03-24T02:34:00.474Z,100056.02
2018-03-24T02:36:26.293Z,100043.76
2018-03-24T02:38:52.105Z,100048.75
2018-03-24T02:41:18.901Z,100049.70
2018-03-24T02:43:45.642Z,100049.94
2018-03-24T02:46:12.373Z,100050.63
2018-03-24T02:48:38.187Z,100044.39
2018-03-24T02:51:04.011Z,100046.57
2018-03-24T02:53:29.827Z,100046.80
2018-03-24T02:55:55.638Z,100053.94
2018-03-24T02:58:21.510Z,100047.60
2018-03-24T03:00:47.300Z,100044.14
2018-03-24T03:03:13.125Z,100044.89
2018-03-24T03:05:38.970Z,100036.36
2018-03-24T03:08:04.798Z,100036.77
2018-03-24T03:10:30.671Z,100034.48
2018-03-24T03:12:57.447Z,100036.55
2018-03-24T03:15:23.272Z,100040.56
2018-03-24T03:17:49.123Z,100036.97
2018-03-24T03:20:14.991Z,100043.66
2018-03-24T03:22:40.806Z,100041.24
2018-03-24T03:25:06.623Z,100039.66
2018-03-24T03:27:32.445Z,100036.61
2018-03-24T03:29:58.260Z,100040.80
2018-03-24T03:32:24.087Z,100035.45
2018-03-24T03:34:49.920Z,100038.08
2018-03-24T03:37:15.737Z,100037.20
2018-03-24T03:39:41.600Z,100036.77
2018-03-24T03:42:07.392Z,100034.01
2018-03-24T03:44:33.215Z,100034.56
2018-03-24T03:46:59.078Z,100030.98
2018-03-24T03:49:24.910Z,100034.70
2018-03-24T03:51:50.722Z,100031.22
2018-03-24T03:54:16.541Z,100033.63
2018-03-24T03:56:42.355Z,100036.78
2018-03-24T03:59:08.171Z,100032.54
2018-03-24T04:01:33.982Z,100038.86
2018-03-24T04:03:59.797Z,100037.47
2018-03-24T04:06:25.606Z,100045.77
2018-03-24T04:08:51.466Z,100042.09
2018-03-24T04:11:17.286Z,100039.99
2018-03-24T04:13:44.132Z,100039.88
2018-03-24T04:16:09.941Z,100037.35
2018-03-24T04:18:35.750Z,100044.46
2018-03-24T04:21:01.564Z,100039.96
2018-03-24T04:23:27.547Z,100040.16
2018-03-24T04:25:54.401Z,100036.98
2018-03-24T04:28:21.184Z,100033.04
2018-03-24T04:30:47.939Z,100034.57
2018-03-24T04:33:14.752Z,100035.45
2018-03-24T04:35:40.562Z,100042.77
2018-03-24T04:38:06.390Z,100034.89
2018-03-24T04:40:33.048Z,100038.91
2018-03-24T04:42:58.862Z,100035.34
2018-03-24T04:45:24.722Z,100039.81
2018-03-24T04:47:50.550Z,100039.52
2018-03-24T04:50:16.371Z,100045.56
2018-03-24T04:52:42.219Z,100049.91
2018-03-24T04:55:08.952Z,100048.89
2018-03-24T04:57:35.754Z,100054.28
2018-03-24T05:00:01.605Z,100048.23
2018-03-24T05:02:27.418Z,100050.05
2018-03-24T05:04:54.094Z,100046.81
2018-03-24T05:07:20.893Z,100051.41
2018-03-24T05:09:46.714Z,100045.48
2018-03-24T05:12:12.523Z,100045.73
2018-03-24T05:14:38.340Z,100048.94
2018-03-24T05:17:05.148Z,100046.09
2018-03-24T05:19:30.968Z,100057.27
2018-03-24T05:21:57.802Z,100057.06
2018-03-24T05:24:23.627Z,100059.97
2018-03-24T05:26:49.449Z,100054.53
2018-03-24T05:29:15.266Z,100060.66
2018-03-24T05:31:42.077Z,100060.98
2018-03-24T05:34:07.959Z,100059.79
2018-03-24T05:36:33.778Z,100067.02
2018-03-24T05:39:00.503Z,100073.12
2018-03-24T05:41:26.324Z,100062.12
2018-03-24T05:43:52.144Z,100065.66
2018-03-24T05:46:17.971Z,100067.91
2018-03-24T05:48:44.750Z,100065.58
2018-03-24T05:51:11.327Z,100062.28
2018-03-24T05:53:38.034Z,100067.61
2018-03-24T05:56:04.790Z,100073.89
2018-03-24T05:58:31.582Z,100076.72
2018-03-24T06:00:58.394Z,100075.22
2018-03-24T06:03:24.216Z,100085.41
2018-03-24T06:05:50.026Z,100081.72
2018-03-24T06:08:15.846Z,100092.75
2018-03-24T06:10:42.456Z,100090.47
2018-03-24T06:13:08.276Z,100098.37
2018-03-24T06:15:34.197Z,100098.98
2018-03-24T06:18:00.032Z,100099.33
2018-03-24T06:20:25.852Z,100099.06
2018-03-24T06:22:51.715Z,100100.32
2018-03-24T06:25:17.542Z,100099.62
2018-03-24T06:27:43.359Z,100101.34
2018-03-24T06:30:10.027Z,100106.17
2018-03-24T06:32:35.863Z,100110.57
2018-03-24T06:35:01.697Z,100107.68
2018-03-24T06:37:27.526Z,100107.54
2018-03-24T06:39:53.387Z,100112.31
2018-03-24T06:42:20.107Z,100114.02
2018-03-24T06:44:45.967Z,100115.45
2018-03-24T06:47:11.782Z,100108.56
2018-03-24T06:49:37.606Z,100108.70
2018-03-24T06:52:03.467Z,100113.58
2018-03-24T06:54:29.327Z,100115.43
2018-03-24T06:56:55.211Z,100114.09
2018-03-24T06:59:21.046Z,100119.89
2018-03-24T07:01:46.908Z,100120.45
2018-03-24T07:04:13.654Z,100126.73
2018-03-24T07:06:40.492Z,100129.23
2018-03-24T07:09:07.220Z,100127.20
2018-03-24T07:11:33.061Z,100132.53
2018-03-24T07:13:59.717Z,100128.05
2018-03-24T07:16:25.579Z,100132.09
2018-03-24T07:18:51.432Z,100128.89
2018-03-24T07:21:17.294Z,100137.93
2018-03-24T07:23:43.159Z,100141.61
2018-03-24T07:26:09.030Z,100135.52
2018-03-24T07:28:35.828Z,100137.80
2018-03-24T07:31:03.694Z,100144.02
2018-03-24T07:33:30.402Z,100142.52
2018-03-24T07:35:56.228Z,100146.13
2018-03-24T07:38:22.085Z,100149.89
2018-03-24T07:40:47.909Z,100153.10
2018-03-24T07:43:13.762Z,100152.09
2018-03-24T07:45:40.308Z,100140.49
2018-03-24T07:48:06.281Z,100148.50
2018-03-24T07:50:32.134Z,100149.39
2018-03-24T07:52:58.931Z,100152.20
2018-03-24T07:55:24.734Z,100147.72
2018-03-24T07:57:50.554Z,100154.89
2018-03-24T08:00:16.749Z,100155.91
2018-03-24T08:02:42.827Z,100150.64
2018-03-24T08:05:08.674Z,100156.70
2018-03-24T08:07:35.411Z,100161.34
2018-03-24T08:10:01.220Z,100172.00
2018-03-24T08:12:27.078Z,100165.54
2018-03-24T08:14:53.083Z,100171.14
2018-03-24T08:17:18.900Z,100170.08
2018-03-24T08:19:44.782Z,100174.92
2018-03-24T08:22:11.281Z,100175.87
2018-03-24T08:24:38.378Z,100173.44
2018-03-24T08:27:05.763Z,100173.55
2018-03-24T08:29:32.403Z,100179.66
2018-03-24T08:31:58.729Z,100174.86
2018-03-24T08:34:25.494Z,100177.56
2018-03-24T08:36:55.025Z,100184.72
2018-03-24T08:39:21.266Z,100176.69
2018-03-24T08:41:47.119Z,100184.87
2018-03-24T08:44:12.975Z,100186.14
2018-03-24T08:46:39.674Z,100185.09
2018-03-24T08:49:05.531Z,100181.80
2018-03-24T08:51:31.346Z,100188.27
2018-03-24T08:53:58.006Z,100185.64
2018-03-24T08:56:23.863Z,100177.87
2018-03-24T08:58:49.691Z,100185.05
2018-03-24T09:01:16.486Z,100186.72
2018-03-24T09:03:43.285Z,100178.05
2018-03-24T09:06:09.148Z,100182.48
2018-03-24T09:08:35.921Z,100185.74
2018-03-24T09:11:02.762Z,100184.20
2018-03-24T09:13:29.514Z,100184.02
2018-03-24T09:15:55.349Z,100190.02
2018-03-24T09:18:21.166Z,100196.13
2018-03-24T09:20:47.057Z,100195.12
2018-03-24T09:23:12.874Z,100190.78
2018-03-24T09:25:38.722Z,100189.42
2018-03-24T09:28:04.562Z,100185.81
2018-03-24T09:30:30.383Z,100192.52
2018-03-24T09:32:56.203Z,100192.24
2018-03-24T09:35:22.025Z,100193.94
2018-03-24T09:37:47.885Z,100189.32
2018-03-24T09:40:13.713Z,100184.20
2018-03-24T09:42:39.531Z,100186.27
2018-03-24T09:45:05.348Z,100178.58
2018-03-24T09:47:31.212Z,100181.21
2018-03-24T09:49:57.047Z,100177.67
2018-03-24T09:52:23.817Z,100179.95
2018-03-24T09:54:49.630Z,100173.95
2018-03-24T09:57:15.442Z,100176.42
2018-03-24T09:59:41.263Z,100182.04
2018-03-24T10:02:07.086Z,100178.55
2018-03-24T10:04:33.112Z,100173.00
2018-03-24T10:06:59.044Z,100170.23
2018-03-24T10:09:24.899Z,100173.64
2018-03-24T10:11:50.716Z,100172.87
2018-03-24T10:14:16.537Z,100168.53
2018-03-24T10:16:42.390Z,100165.27
2018-03-24T10:19:08.246Z,100162.17
2018-03-24T10:24:30.322Z,100158.57
2018-03-24T10:26:56.156Z,100167.89
2018-03-24T10:29:22.987Z,100162.77
2018-03-24T10:31:48.848Z,100162.80
2018-03-24T10:34:14.677Z,100157.89
2018-03-24T10:36:40.494Z,100156.34
2018-03-24T10:39:06.303Z,100157.73
2018-03-24T10:41:32.114Z,100157.25
2018-03-24T10:43:57.964Z,100164.43
2018-03-24T10:46:23.772Z,100161.25
2018-03-24T10:48:49.583Z,100158.49
2018-03-24T10:51:15.440Z,100157.73
2018-03-24T10:53:41.301Z,100157.25
2018-03-24T10:56:08.070Z,100151.80
2018-03-24T10:58:33.913Z,100163.49
2018-03-24T11:01:02.639Z,100154.50
2018-03-24T11:03:28.503Z,100154.91
2018-03-24T11:05:56.525Z,100151.50
2018-03-24T11:08:22.546Z,100158.50
2018-03-24T11:10:49.143Z,100160.77
2018-03-24T11:13:14.987Z,100165.05
2018-03-24T11:15:40.910Z,100158.42
2018-03-24T11:18:06.738Z,100159.59
2018-03-24T11:20:32.547Z,100152.77
2018-03-24T11:22:58.384Z,100149.52
2018-03-24T11:25:24.396Z,100150.19
2018-03-24T11:27:50.231Z,100156.42
2018-03-24T11:30:16.278Z,100153.19
2018-03-24T11:32:42.111Z,100151.78
2018-03-24T11:35:08.868Z,100148.67
2018-03-24T11:37:34.683Z,100144.74
2018-03-24T11:40:00.510Z,100154.71
2018-03-24T11:42:27.147Z,100152.39
2018-03-24T11:44:52.965Z,100142.67
2018-03-24T11:47:18.786Z,100146.39
2018-03-24T11:49:45.407Z,100152.41
2018-03-24T11:52:11.247Z,100149.35
2018-03-24T11:54:42.009Z,100147.91
2018-03-24T11:57:07.817Z,100145.05
2018-03-24T11:59:34.539Z,100146.75
2018-03-24T12:02:00.847Z,100143.39
2018-03-24T12:04:26.659Z,100138.06
2018-03-24T12:06:52.464Z,100142.61
2018-03-24T12:09:18.329Z,100130.81
2018-03-24T12:11:44.140Z,100141.71
2018-03-24T12:14:10.095Z,100138.20
2018-03-24T12:16:35.925Z,100137.33
2018-03-24T12:19:01.770Z,100132.45
2018-03-24T12:21:27.622Z,100142.68
2018-03-24T12:23:53.434Z,100132.65
2018-03-24T12:26:19.283Z,100127.19
2018-03-24T12:28:45.084Z,100134.55
2018-03-24T12:31:10.924Z,100134.65
2018-03-24T12:33:36.731Z,100130.30
2018-03-24T12:36:03.373Z,100139.52
2018-03-24T12:38:29.183Z,100137.06
2018-03-24T12:40:54.996Z,100134.38
2018-03-24T12:43:21.610Z,100132.25
2018-03-24T12:45:47.586Z,100137.41
2018-03-24T12:48:13.529Z,100138.77
2018-03-24T12:50:39.347Z,100138.66
2018-03-24T12:53:05.297Z,100138.66
2018-03-24T12:55:31.151Z,100136.98
2018-03-24T12:57:57.886Z,100137.88
2018-03-24T13:00:24.780Z,100136.87
2018-03-24T13:02:51.418Z,100137.49
2018-03-24T13:05:17.227Z,100132.65
2018-03-24T13:07:44.203Z,100135.78
2018-03-24T13:10:10.084Z,100138.16
2018-03-24T13:12:35.966Z,100140.89
2018-03-24T13:15:01.963Z,100136.18
2018-03-24T13:17:27.776Z,100140.77
2018-03-24T13:19:53.672Z,100133.47
2018-03-24T13:22:19.480Z,100131.70
2018-03-24T13:24:46.304Z,100138.72
2018-03-24T13:27:12.118Z,100130.28
2018-03-24T13:29:38.186Z,100134.39
2018-03-24T13:32:04.205Z,100131.02
2018-03-24T13:34:30.223Z,100130.28
2018-03-24T13:36:56.146Z,100137.53
2018-03-24T13:39:21.964Z,100131.76
2018-03-24T13:41:47.772Z,100127.45
2018-03-24T13:44:13.579Z,100128.72
2018-03-24T13:46:39.390Z,100129.18
2018-03-24T13:49:05.254Z,100130.33
2018-03-24T13:51:31.142Z,100132.55
2018-03-24T13:53:56.954Z,100126.71
2018-03-24T13:56:22.777Z,100128.05
2018-03-24T13:58:48.603Z,100129.42
2018-03-24T14:01:14.434Z,100126.58
2018-03-24T14:03:40.327Z,100128.55
2018-03-24T14:06:07.246Z,100124.19
2018-03-24T14:08:34.002Z,100126.89
2018-03-24T14:11:00.646Z,100117.12
2018-03-24T14:13:26.500Z,100120.06
2018-03-24T14:15:52.315Z,100116.19
2018-03-24T14:18:19.162Z,100113.38
2018-03-24T14:20:44.975Z,100110.50
2018-03-24T14:23:10.798Z,100108.98
2018-03-24T14:25:36.606Z,100105.37
2018-03-24T14:28:02.414Z,100100.38
2018-03-24T14:30:28.310Z,100096.94
2018-03-24T14:32:54.121Z,100095.58
2018-03-24T14:35:19.938Z,100098.28
2018-03-24T14:37:45.775Z,100092.20
2018-03-24T14:40:11.574Z,100095.69
2018-03-24T14:42:37.383Z,100096.20
2018-03-24T14:45:03.223Z,100099.70
2018-03-24T14:47:29.026Z,100096.11
2018-03-24T14:49:55.833Z,100100.64
2018-03-24T14:52:21.638Z,100099.94
2018-03-24T14:54:47.454Z,100103.75
2018-03-24T14:57:13.305Z,100099.11
2018-03-24T14:59:39.118Z,100098.59
2018-03-24T15:02:04.970Z,100099.00
2018-03-24T15:04:30.773Z,100094.16
2018-03-24T15:06:56.585Z,100097.86
2018-03-24T15:09:22.390Z,100096.66
2018-03-24T15:11:49.206Z,100095.31
2018-03-24T15:14:15.015Z,100095.24
2018-03-24T15:16:41.630Z,100087.29
2018-03-24T15:19:07.442Z,100082.48
2018-03-24T15:21:33.291Z,100085.11
2018-03-24T15:23:59.101Z,100089.55
2018-03-24T15:26:24.906Z,100077.75
2018-03-24T15:28:56.873Z,100091.23
2018-03-24T15:31:29.922Z,100089.94
2018-03-24T15:34:02.046Z,100086.58
2018-03-24T15:36:34.077Z,100079.78
2018-03-24T15:39:00.838Z,100077.91
2018-03-24T15:41:26.643Z,100082.00
2018-03-24T15:43:52.491Z,100079.51
2018-03-24T15:46:18.299Z,100080.89
2018-03-24T15:48:44.243Z,100085.47
2018-03-24T15:51:10.062Z,100087.13
2018-03-24T15:53:35.915Z,100091.80
2018-03-24T15:56:01.749Z,100086.36
2018-03-24T15:58:27.562Z,100087.61
2018-03-24T16:00:54.282Z,100094.06
2018-03-24T16:03:21.247Z,100091.39
2018-03-24T16:05:47.054Z,100090.73
2018-03-24T16:08:12.858Z,100093.19
2018-03-24T16:10:39.604Z,100100.21
2018-03-24T16:13:05.411Z,100100.36
2018-03-24T16:15:31.222Z,100100.64
2018-03-24T16:17:57.066Z,100099.92
2018-03-24T16:20:23.814Z,100096.94
2018-03-24T16:22:49.623Z,100096.10
2018-03-24T16:25:15.442Z,100095.63
2018-03-24T16:27:41.251Z,100096.77
2018-03-24T16:30:07.063Z,100094.00
2018-03-24T16:32:33.843Z,100095.69
2018-03-24T16:34:59.654Z,100100.02
2018-03-24T16:37:25.463Z,100102.45
2018-03-24T16:39:51.284Z,100107.02
2018-03-24T16:42:17.090Z,100107.95
2018-03-24T16:44:42.938Z,100112.08
2018-03-24T16:47:08.737Z,100115.32
2018-03-24T16:49:35.498Z,100114.27
2018-03-24T16:52:01.354Z,100116.75
2018-03-24T16:54:27.165Z,100115.89
2018-03-24T16:56:52.983Z,100124.57
2018-03-24T16:59:18.829Z,100123.83
2018-03-24T17:01:44.688Z,100129.19
2018-03-24T17:04:10.555Z,100126.77
2018-03-24T17:06:36.406Z,100127.86
2018-03-24T17:09:03.062Z,100128.70
2018-03-24T17:11:29.872Z,100128.64
2018-03-24T17:13:55.734Z,100131.39
2018-03-24T17:16:21.577Z,100131.30
2018-03-24T17:18:47.387Z,100127.13
2018-03-24T17:21:14.175Z,100134.34
2018-03-24T17:23:40.007Z,100129.22
2018-03-24T17:26:05.823Z,100138.41
2018-03-24T17:28:31.639Z,100133.52
2018-03-24T17:30:57.500Z,100135.18
2018-03-24T17:33:23.324Z,100139.52
2018-03-24T17:35:49.190Z,100139.03
2018-03-24T17:38:15.115Z,100140.19
2018-03-24T17:40:41.064Z,100137.53
2018-03-24T17:43:06.881Z,100134.27
2018-03-24T17:45:32.724Z,100137.09
2018-03-24T17:47:58.534Z,100136.81
2018-03-24T17:50:24.436Z,100135.69
2018-03-24T17:52:50.244Z,100139.02
2018-03-24T17:55:16.179Z,100138.84
2018-03-24T17:57:42.994Z,100140.12
2018-03-24T18:03:08.454Z,100136.52
2018-03-24T18:05:34.353Z,100139.92
2018-03-24T18:08:00.194Z,100142.93
2018-03-24T18:10:26.010Z,100146.45
2018-03-24T18:12:51.819Z,100152.59
2018-03-24T18:15:17.660Z,100150.30
2018-03-24T18:17:43.519Z,100153.91
2018-03-24T18:20:10.285Z,100156.95
2018-03-24T18:22:36.090Z,100161.41
2018-03-24T18:25:01.984Z,100162.70
2018-03-24T18:27:27.866Z,100170.66
2018-03-24T18:29:53.726Z,100165.09
2018-03-24T18:32:19.526Z,100169.09
2018-03-24T18:34:45.336Z,100173.23
2018-03-24T18:37:11.153Z,100176.28
2018-03-24T18:39:37.094Z,100174.59
2018-03-24T18:42:02.914Z,100179.29
2018-03-24T18:44:28.807Z,100180.60
2018-03-24T18:46:54.708Z,100181.79
2018-03-24T18:49:20.516Z,100179.69
2018-03-24T18:51:46.326Z,100183.22
2018-03-24T18:54:12.180Z,100186.98
2018-03-24T18:56:38.102Z,100192.30
2018-03-24T18:59:03.916Z,100194.53
2018-03-24T19:01:29.717Z,100193.44
2018-03-24T19:03:56.578Z,100194.41
2018-03-24T19:06:23.223Z,100189.80
2018-03-24T19:08:50.043Z,100197.64
2018-03-24T19:11:16.062Z,100186.75
2018-03-24T19:13:41.910Z,100195.00
2018-03-24T19:16:07.928Z,100189.72
2018-03-24T19:18:33.755Z,100191.03
2018-03-24T19:20:59.690Z,100194.88
2018-03-24T19:23:25.496Z,100195.28
2018-03-24T19:25:51.304Z,100192.14
2018-03-24T19:28:17.114Z,100190.23
2018-03-24T19:30:42.962Z,100194.66
2018-03-24T19:33:08.846Z,100187.22
2018-03-24T19:35:34.701Z,100195.13
2018-03-24T19:38:00.510Z,100193.91
2018-03-24T19:40:26.329Z,100190.30
2018-03-24T19:42:52.164Z,100191.66
2018-03-24T19:45:18.090Z,100192.42
2018-03-24T19:47:44.054Z,100192.78
2018-03-24T19:50:09.928Z,100196.56
2018-03-24T19:52:35.776Z,100194.54
2018-03-24T19:55:01.595Z,100196.14
2018-03-24T19:57:28.467Z,100194.11
2018-03-24T19:59:54.274Z,100192.18
2018-03-24T20:02:20.098Z,100195.55
2018-03-24T20:04:45.967Z,100202.97
2018-03-24T20:07:12.700Z,100196.56
2018-03-24T20:09:38.551Z,100196.97
2018-03-24T20:12:04.367Z,100191.78
2018-03-24T20:14:30.187Z,100194.61
2018-03-24T20:16:56.031Z,100199.18
2018-03-24T20:19:21.859Z,100203.45
2018-03-24T20:21:48.663Z,100198.10
2018-03-24T20:24:15.358Z,100201.06
2018-03-24T20:26:41.238Z,100199.49
2018-03-24T20:29:07.054Z,100198.47
2018-03-24T20:31:32.869Z,100201.82
2018-03-24T20:33:58.673Z,100200.57
2018-03-24T20:36:24.489Z,100203.48
2018-03-24T20:38:50.316Z,100195.73
2018-03-24T20:41:16.127Z,100200.88
2018-03-24T20:43:41.945Z,100195.78
2018-03-24T20:46:07.751Z,100201.41
2018-03-24T20:48:33.602Z,100200.94
2018-03-24T20:51:00.267Z,100201.77
2018-03-24T20:53:26.081Z,100200.75
2018-03-24T20:55:51.932Z,100201.59
2018-03-24T20:58:17.760Z,100203.08
2018-03-24T21:00:43.650Z,100209.23
2018-03-24T21:03:10.434Z,100201.06
2018-03-24T21:05:36.279Z,100203.26
2018-03-24T21:08:02.097Z,100202.48
2018-03-24T21:10:27.954Z,100209.29
2018-03-24T21:12:53.771Z,100213.97
2018-03-24T21:15:19.587Z,100209.13
2018-03-24T21:17:45.400Z,100214.88
2018-03-24T21:20:12.062Z,100213.55
2018-03-24T21:22:37.873Z,100212.94
2018-03-24T21:25:03.692Z,100213.06
2018-03-24T21:27:29.506Z,100216.59
2018-03-24T21:29:55.346Z,100223.95
2018-03-24T21:32:22.146Z,100217.56
2018-03-24T21:34:47.954Z,100222.58
2018-03-24T21:37:13.762Z,100221.97
2018-03-24T21:39:39.576Z,100227.50
2018-03-24T21:42:06.294Z,100224.63
2018-03-24T21:44:32.977Z,100217.72
2018-03-24T21:46:59.711Z,100216.53
2018-03-24T21:49:25.551Z,100223.43
2018-03-24T21:51:51.358Z,100223.72
2018-03-24T21:54:17.201Z,100219.28
2018-03-24T21:56:43.008Z,100221.13
2018-03-24T21:59:09.684Z,100221.07
2018-03-24T22:01:35.531Z,100222.09
2018-03-24T22:04:01.377Z,100222.58
2018-03-24T22:06:27.178Z,100220.07
2018-03-24T22:08:52.991Z,100218.27
2018-03-24T22:11:18.828Z,100222.34
2018-03-24T22:13:44.629Z,100221.67
2018-03-24T22:16:10.448Z,100222.45
2018-03-24T22:18:36.273Z,100226.56
2018-03-24T22:21:02.078Z,100226.69
2018-03-24T22:23:27.922Z,100219.15
2018-03-24T22:25:53.723Z,100223.12
2018-03-24T22:28:19.539Z,100219.53
2018-03-24T22:30:46.185Z,100218.57
2018-03-24T22:33:12.902Z,100218.45
2018-03-24T22:35:39.676Z,100218.92
2018-03-24T22:38:06.465Z,100222.16
2018-03-24T22:40:32.273Z,100217.06
2018-03-24T22:42:58.078Z,100212.41
2018-03-24T22:45:23.887Z,100211.58
2018-03-24T22:47:49.692Z,100211.88
2018-03-24T22:50:15.502Z,100210.07
2018-03-24T22:52:42.138Z,100211.39
2018-03-24T22:55:08.911Z,100207.57
2018-03-24T22:57:34.728Z,100207.70
2018-03-24T23:00:00.529Z,100204.33
2018-03-24T23:02:26.338Z,100202.63
2018-03-24T23:04:52.147Z,100208.56
2018-03-24T23:07:17.994Z,100204.30
2018-03-24T23:09:43.806Z,100206.33
2018-03-24T23:12:09.634Z,100206.00
2018-03-24T23:14:35.461Z,100206.26
2018-03-24T23:17:01.277Z,100207.73
2018-03-24T23:19:27.077Z,100205.88
2018-03-24T23:21:52.903Z,100207.02
2018-03-24T23:24:18.709Z,100199.48
2018-03-24T23:26:45.419Z,100204.69
2018-03-24T23:29:11.229Z,100207.02
2018-03-24T23:31:37.879Z,100207.98
2018-03-24T23:34:03.713Z,100200.58
2018-03-24T23:36:30.486Z,100202.85
2018-03-24T23:38:56.298Z,100202.91
2018-03-24T23:41:22.123Z,100207.86
2018-03-24T23:43:47.919Z,100216.94
2018-03-24T23:46:13.719Z,100208.79
2018-03-24T23:48:39.538Z,100210.27
2018-03-24T23:51:05.346Z,100209.72
2018-03-24T23:53:31.149Z,100206.20
2018-03-24T23:55:56.966Z,100204.27
2018-03-24T23:58:22.767Z,100210.48
